Krupp, Washington
Current Conditions -  °F | °C
As of 8:04 PM on Friday 24 Oct 2014 (Local Time) from KMWH Reporting Station
Light Rain Light Rain  
Wind Chill: 51°   Ceiling: 2400
Heat Index: 51°   Visibility: 6mi
Dew Point: 48°   Wind: 7mph
Humidity: 89%   Direction: 350°N
Pressure: 29.97"   Gusts: NA
Location:  47.3463°N, 119.014°W
Report Text: KMWH 250304Z 35006KT 6SM -RA BR BKN024 OVC055 11/09 A2997 RMK AO2 P0001 T01060089
Loading
Personal Weather Stations






























Interactive Weather Map
Tropical Storm Tracking
New forecast layout! Learn more

10-Day Weather Forecast

Advertisements
Track Severe Weather on mobile